Terminal Aerodrome Forecast
Issued by NWS Albany, NY

Home | Current Version | Previous Version | Text Only | Print | Product List | Glossary On
Versions: 1 2 3 4 5 6 7 8 9 10 11 12 13 14
000
FTUS41 KALY 121700
TAFGFL
TAF
KGFL 121720Z 1218/1318 17007KT P6SM VCSH BKN070
     FM130000 VRB03KT P6SM SCT060 SCT250
     FM130800 00000KT 3SM BR BCFG BKN250
     FM131200 19007KT P6SM BKN050 BKN250
     FM131500 19008KT P6SM VCSH BKN050 BKN250=

USA.gov is the U.S. government's official web portal to all federal, state and local government web resources and services.